sensor_id;sensor_type;location;lat;lon;timestamp;pressure;altitude;pressure_sealevel;temperature;humidity
60055;BME280;45930;53.514;55.904;2023-05-11T00:01:04;49046.78;;;-149.77;69.86
60055;BME280;45930;53.514;55.904;2023-05-11T00:02:05;49048.78;;;-149.77;70.50
60055;BME280;45930;53.514;55.904;2023-05-11T00:03:07;49025.00;;;-149.77;70.88
60055;BME280;45930;53.514;55.904;2023-05-11T00:04:08;49009.16;;;-149.77;71.36
60055;BME280;45930;53.514;55.904;2023-05-11T00:05:09;49044.81;;;-149.77;71.68
60055;BME280;45930;53.514;55.904;2023-05-11T00:06:10;49032.94;;;-149.77;73.19
60055;BME280;45930;53.514;55.904;2023-05-11T00:07:10;49021.06;;;-149.77;72.74
60055;BME280;45930;53.514;55.904;2023-05-11T00:08:11;49032.94;;;-149.77;73.05
60055;BME280;45930;53.514;55.904;2023-05-11T00:09:12;49042.84;;;-149.77;73.02
60055;BME280;45930;53.514;55.904;2023-05-11T00:10:13;49028.97;;;-149.77;72.41
60055;BME280;45930;53.514;55.904;2023-05-11T00:11:13;49048.78;;;-149.77;71.69
60055;BME280;45930;53.514;55.904;2023-05-11T00:12:14;49060.66;;;-149.77;71.27
60055;BME280;45930;53.514;55.904;2023-05-11T00:13:15;49064.63;;;-149.77;71.45
60055;BME280;45930;53.514;55.904;2023-05-11T00:14:16;49032.94;;;-149.77;71.70
60055;BME280;45930;53.514;55.904;2023-05-11T00:15:17;49032.94;;;-149.77;71.21
60055;BME280;45930;53.514;55.904;2023-05-11T00:16:18;49001.25;;;-149.77;71.41
60055;BME280;45930;53.514;55.904;2023-05-11T00:17:19;49048.78;;;-149.77;71.36
60055;BME280;45930;53.514;55.904;2023-05-11T00:18:20;49048.78;;;-149.77;71.42
60055;BME280;45930;53.514;55.904;2023-05-11T00:19:21;49032.94;;;-149.77;70.87
60055;BME280;45930;53.514;55.904;2023-05-11T00:20:21;49017.09;;;-149.77;70.75
60055;BME280;45930;53.514;55.904;2023-05-11T00:21:23;49050.75;;;-149.77;69.96
60055;BME280;45930;53.514;55.904;2023-05-11T00:22:24;49064.63;;;-149.77;69.42
60055;BME280;45930;53.514;55.904;2023-05-11T00:23:25;49066.59;;;-149.77;68.61
60055;BME280;45930;53.514;55.904;2023-05-11T00:24:25;49056.69;;;-149.77;67.33
60055;BME280;45930;53.514;55.904;2023-05-11T00:25:26;49088.41;;;-149.77;67.42
60055;BME280;45930;53.514;55.904;2023-05-11T00:26:27;49080.47;;;-149.77;67.88
60055;BME280;45930;53.514;55.904;2023-05-11T00:27:28;49078.50;;;-149.77;68.39
60055;BME280;45930;53.514;55.904;2023-05-11T00:28:28;49102.25;;;-149.77;68.29
60055;BME280;45930;53.514;55.904;2023-05-11T00:29:29;49042.84;;;-149.77;68.00
60055;BME280;45930;53.514;55.904;2023-05-11T00:30:30;49068.59;;;-149.77;67.32
60055;BME280;45930;53.514;55.904;2023-05-11T00:31:30;49076.50;;;-149.77;67.24
60055;BME280;45930;53.514;55.904;2023-05-11T00:32:32;49064.63;;;-149.77;67.06
60055;BME280;45930;53.514;55.904;2023-05-11T00:33:32;49072.53;;;-149.77;67.52
60055;BME280;45930;53.514;55.904;2023-05-11T00:34:33;49076.50;;;-149.77;67.64
60055;BME280;45930;53.514;55.904;2023-05-11T00:35:34;49084.44;;;-149.77;67.70
60055;BME280;45930;53.514;55.904;2023-05-11T00:36:35;49082.44;;;-149.77;66.88
60055;BME280;45930;53.514;55.904;2023-05-11T00:37:39;49100.28;;;-149.77;66.70
60055;BME280;45930;53.514;55.904;2023-05-11T00:38:40;49060.66;;;-149.77;66.82
60055;BME280;45930;53.514;55.904;2023-05-11T00:39:41;49074.53;;;-149.77;66.65
60055;BME280;45930;53.514;55.904;2023-05-11T00:40:41;49094.34;;;-149.77;66.20
60055;BME280;45930;53.514;55.904;2023-05-11T00:41:42;49104.25;;;-149.77;66.17
60055;BME280;45930;53.514;55.904;2023-05-11T00:42:43;49062.66;;;-149.77;66.32
60055;BME280;45930;53.514;55.904;2023-05-11T00:43:44;49060.66;;;-149.77;67.15
60055;BME280;45930;53.514;55.904;2023-05-11T00:44:45;49048.78;;;-149.77;68.30
60055;BME280;45930;53.514;55.904;2023-05-11T00:45:45;49048.78;;;-149.77;69.68
60055;BME280;45930;53.514;55.904;2023-05-11T00:46:47;49088.41;;;-149.77;71.79
60055;BME280;45930;53.514;55.904;2023-05-11T00:47:48;49036.91;;;-149.77;71.80
60055;BME280;45930;53.514;55.904;2023-05-11T00:48:49;49007.19;;;-149.77;72.26
60055;BME280;45930;53.514;55.904;2023-05-11T00:49:52;49025.00;;;-149.77;72.53
60055;BME280;45930;53.514;55.904;2023-05-11T00:50:53;49021.06;;;-149.77;72.49
60055;BME280;45930;53.514;55.904;2023-05-11T00:51:54;49017.09;;;-149.77;72.59
60055;BME280;45930;53.514;55.904;2023-05-11T00:52:57;49015.09;;;-149.77;72.50
60055;BME280;45930;53.514;55.904;2023-05-11T00:53:59;49009.16;;;-149.77;72.16
60055;BME280;45930;53.514;55.904;2023-05-11T00:55:00;49028.97;;;-149.77;72.78
60055;BME280;45930;53.514;55.904;2023-05-11T00:56:02;49017.09;;;-149.77;72.66
60055;BME280;45930;53.514;55.904;2023-05-11T00:57:03;49003.22;;;-149.77;73.17
60055;BME280;45930;53.514;55.904;2023-05-11T00:58:04;49007.19;;;-149.77;73.76
60055;BME280;45930;53.514;55.904;2023-05-11T00:59:05;49005.19;;;-149.77;73.71
60055;BME280;45930;53.514;55.904;2023-05-11T01:00:06;48973.50;;;-149.77;74.09
60055;BME280;45930;53.514;55.904;2023-05-11T01:01:07;49009.16;;;-149.77;74.81
60055;BME280;45930;53.514;55.904;2023-05-11T01:02:08;48989.34;;;-149.77;74.74
60055;BME280;45930;53.514;55.904;2023-05-11T01:03:09;48993.31;;;-149.77;74.95
60055;BME280;45930;53.514;55.904;2023-05-11T01:04:11;48967.56;;;-149.77;75.22
60055;BME280;45930;53.514;55.904;2023-05-11T01:05:13;48975.50;;;-149.77;74.98
60055;BME280;45930;53.514;55.904;2023-05-11T01:08:50;48979.47;;;-149.77;74.47
60055;BME280;45930;53.514;55.904;2023-05-11T01:10:36;49019.06;;;-149.77;74.52
60055;BME280;45930;53.514;55.904;2023-05-11T01:11:32;48987.38;;;-149.77;74.07
60055;BME280;45930;53.514;55.904;2023-05-11T01:14:29;48973.50;;;-149.77;74.29
60055;BME280;45930;53.514;55.904;2023-05-11T01:15:47;48993.31;;;-149.77;75.07
60055;BME280;45930;53.514;55.904;2023-05-11T01:16:55;49001.25;;;-149.77;75.65
60055;BME280;45930;53.514;55.904;2023-05-11T01:19:12;48985.41;;;-149.77;75.90
60055;BME280;45930;53.514;55.904;2023-05-11T01:20:23;48985.41;;;-149.77;76.03
60055;BME280;45930;53.514;55.904;2023-05-11T01:21:29;48973.50;;;-149.77;76.03
60055;BME280;45930;53.514;55.904;2023-05-11T01:25:30;48969.56;;;-149.77;75.07
60055;BME280;45930;53.514;55.904;2023-05-11T01:27:55;48989.34;;;-149.77;75.54
60055;BME280;45930;53.514;55.904;2023-05-11T01:30:56;48961.63;;;-149.77;75.73
60055;BME280;45930;53.514;55.904;2023-05-11T01:32:05;48991.34;;;-149.77;75.61
60055;BME280;45930;53.514;55.904;2023-05-11T01:33:08;48963.63;;;-149.77;76.16
60055;BME280;45930;53.514;55.904;2023-05-11T01:34:23;48985.41;;;-149.77;75.66
60055;BME280;45930;53.514;55.904;2023-05-11T01:35:26;48961.63;;;-149.77;75.23
60055;BME280;45930;53.514;55.904;2023-05-11T01:36:39;48943.81;;;-149.77;75.40
60055;BME280;45930;53.514;55.904;2023-05-11T01:37:47;48975.50;;;-149.77;75.10
60055;BME280;45930;53.514;55.904;2023-05-11T01:38:50;48985.41;;;-149.77;75.64
60055;BME280;45930;53.514;55.904;2023-05-11T01:40:06;48939.84;;;-149.77;76.03
60055;BME280;45930;53.514;55.904;2023-05-11T01:41:13;48957.66;;;-149.77;75.58
60055;BME280;45930;53.514;55.904;2023-05-11T01:42:16;48924.00;;;-149.77;75.40
60055;BME280;45930;53.514;55.904;2023-05-11T01:43:23;48957.66;;;-149.77;75.58
60055;BME280;45930;53.514;55.904;2023-05-11T01:44:26;48963.63;;;-149.77;75.79
60055;BME280;45930;53.514;55.904;2023-05-11T01:45:34;48949.75;;;-149.77;76.42
60055;BME280;45930;53.514;55.904;2023-05-11T01:46:36;48965.59;;;-149.77;76.72
60055;BME280;45930;53.514;55.904;2023-05-11T01:47:39;48908.16;;;-149.77;77.42
60055;BME280;45930;53.514;55.904;2023-05-11T01:48:44;48943.81;;;-149.77;77.35
60055;BME280;45930;53.514;55.904;2023-05-11T01:49:46;48914.09;;;-149.77;77.39
60055;BME280;45930;53.514;55.904;2023-05-11T01:50:49;48927.97;;;-149.77;77.23
60055;BME280;45930;53.514;55.904;2023-05-11T01:51:52;48941.81;;;-149.77;77.10
60055;BME280;45930;53.514;55.904;2023-05-11T01:52:54;48904.19;;;-149.77;77.59
60055;BME280;45930;53.514;55.904;2023-05-11T01:53:57;48918.06;;;-149.77;77.86
60055;BME280;45930;53.514;55.904;2023-05-11T01:55:01;48924.00;;;-149.77;77.86
60055;BME280;45930;53.514;55.904;2023-05-11T01:56:05;48904.19;;;-149.77;78.40
60055;BME280;45930;53.514;55.904;2023-05-11T01:57:06;48924.00;;;-149.77;78.47
60055;BME280;45930;53.514;55.904;2023-05-11T01:58:08;48890.31;;;-149.77;78.44
60055;BME280;45930;53.514;55.904;2023-05-11T01:59:10;48902.22;;;-149.77;78.60
60055;BME280;45930;53.514;55.904;2023-05-11T02:00:14;48886.38;;;-149.77;78.86
60055;BME280;45930;53.514;55.904;2023-05-11T02:01:16;48894.28;;;-149.77;78.99
60055;BME280;45930;53.514;55.904;2023-05-11T02:02:17;48882.41;;;-149.77;78.73
60055;BME280;45930;53.514;55.904;2023-05-11T02:03:20;48884.38;;;-149.77;77.80
60055;BME280;45930;53.514;55.904;2023-05-11T02:04:22;48910.13;;;-149.77;77.87
60055;BME280;45930;53.514;55.904;2023-05-11T02:05:25;48876.47;;;-149.77;78.04
60055;BME280;45930;53.514;55.904;2023-05-11T02:06:28;48890.31;;;-149.77;77.49
60055;BME280;45930;53.514;55.904;2023-05-11T02:07:30;48870.53;;;-149.77;77.21
60055;BME280;45930;53.514;55.904;2023-05-11T02:08:32;48868.53;;;-149.77;76.89
60055;BME280;45930;53.514;55.904;2023-05-11T02:09:34;48886.38;;;-149.77;77.02
60055;BME280;45930;53.514;55.904;2023-05-11T02:10:37;48868.53;;;-149.77;76.92
60055;BME280;45930;53.514;55.904;2023-05-11T02:11:41;48878.44;;;-149.77;77.74
60055;BME280;45930;53.514;55.904;2023-05-11T02:12:44;48854.69;;;-149.77;77.67
60055;BME280;45930;53.514;55.904;2023-05-11T02:13:46;48870.53;;;-149.77;77.83
60055;BME280;45930;53.514;55.904;2023-05-11T02:14:50;48834.88;;;-149.77;77.35
60055;BME280;45930;53.514;55.904;2023-05-11T02:15:54;48870.53;;;-149.77;76.92
60055;BME280;45930;53.514;55.904;2023-05-11T02:16:56;48904.19;;;-149.77;76.43
60055;BME280;45930;53.514;55.904;2023-05-11T02:17:57;48882.41;;;-149.77;76.93
60055;BME280;45930;53.514;55.904;2023-05-11T02:18:59;48866.56;;;-149.77;76.64
60055;BME280;45930;53.514;55.904;2023-05-11T02:20:01;48850.72;;;-149.77;76.91
60055;BME280;45930;53.514;55.904;2023-05-11T02:21:04;48864.59;;;-149.77;76.13
60055;BME280;45930;53.514;55.904;2023-05-11T02:22:08;48860.63;;;-149.77;76.10
60055;BME280;45930;53.514;55.904;2023-05-11T02:23:09;48842.78;;;-149.77;75.90
60055;BME280;45930;53.514;55.904;2023-05-11T02:24:10;48846.75;;;-149.77;75.90
60055;BME280;45930;53.514;55.904;2023-05-11T02:25:12;48836.84;;;-149.77;76.09
60055;BME280;45930;53.514;55.904;2023-05-11T02:26:14;48830.91;;;-149.77;75.90
60055;BME280;45930;53.514;55.904;2023-05-11T02:27:16;48823.00;;;-149.77;75.40
60055;BME280;45930;53.514;55.904;2023-05-11T02:28:18;48821.00;;;-149.77;75.58
60055;BME280;45930;53.514;55.904;2023-05-11T02:29:19;48838.84;;;-149.77;74.82
60055;BME280;45930;53.514;55.904;2023-05-11T02:30:19;48850.72;;;-149.77;74.95
60055;BME280;45930;53.514;55.904;2023-05-11T02:31:31;48838.84;;;-149.77;75.37
60055;BME280;45930;53.514;55.904;2023-05-11T02:32:38;48823.00;;;-149.77;74.91
60055;BME280;45930;53.514;55.904;2023-05-11T02:33:44;48830.91;;;-149.77;74.09
60055;BME280;45930;53.514;55.904;2023-05-11T02:35:00;48858.63;;;-149.77;73.27
60055;BME280;45930;53.514;55.904;2023-05-11T02:36:05;48866.56;;;-149.77;73.77
60055;BME280;45930;53.514;55.904;2023-05-11T02:37:17;48830.91;;;-149.77;74.20
60055;BME280;45930;53.514;55.904;2023-05-11T02:38:21;48836.84;;;-149.77;73.90
60055;BME280;45930;53.514;55.904;2023-05-11T02:39:31;48842.78;;;-149.77;73.14
60055;BME280;45930;53.514;55.904;2023-05-11T02:40:38;48838.84;;;-149.77;73.44
60055;BME280;45930;53.514;55.904;2023-05-11T02:41:42;48811.09;;;-149.77;73.44
60055;BME280;45930;53.514;55.904;2023-05-11T02:42:44;48846.75;;;-149.77;73.22
60055;BME280;45930;53.514;55.904;2023-05-11T02:43:50;48836.84;;;-149.77;73.03
60055;BME280;45930;53.514;55.904;2023-05-11T02:45:00;48836.84;;;-149.77;72.54
60055;BME280;45930;53.514;55.904;2023-05-11T02:46:05;48854.69;;;-149.77;71.79
60055;BME280;45930;53.514;55.904;2023-05-11T02:47:11;48856.66;;;-149.77;71.92
60055;BME280;45930;53.514;55.904;2023-05-11T02:48:20;48838.84;;;-149.77;71.83
60055;BME280;45930;53.514;55.904;2023-05-11T02:49:23;48884.38;;;-149.77;71.44
60055;BME280;45930;53.514;55.904;2023-05-11T02:50:26;48856.66;;;-149.77;70.55
60055;BME280;45930;53.514;55.904;2023-05-11T02:51:35;48830.91;;;-149.77;70.16
60055;BME280;45930;53.514;55.904;2023-05-11T02:52:41;48854.69;;;-149.77;69.83
60055;BME280;45930;53.514;55.904;2023-05-11T02:53:43;48830.91;;;-149.77;69.59
60055;BME280;45930;53.514;55.904;2023-05-11T02:54:46;48842.78;;;-149.77;69.68
60055;BME280;45930;53.514;55.904;2023-05-11T02:55:49;48890.31;;;-149.77;68.76
60055;BME280;45930;53.514;55.904;2023-05-11T02:56:51;48838.84;;;-149.77;68.49
60055;BME280;45930;53.514;55.904;2023-05-11T02:57:52;48874.47;;;-149.77;68.28
60055;BME280;45930;53.514;55.904;2023-05-11T02:58:53;48862.59;;;-149.77;68.77
60055;BME280;45930;53.514;55.904;2023-05-11T02:59:55;48866.56;;;-149.77;68.76
60055;BME280;45930;53.514;55.904;2023-05-11T03:00:57;48868.53;;;-149.77;68.46
60055;BME280;45930;53.514;55.904;2023-05-11T03:01:58;48856.66;;;-149.77;67.62
60055;BME280;45930;53.514;55.904;2023-05-11T03:02:59;48866.56;;;-149.77;66.91
60055;BME280;45930;53.514;55.904;2023-05-11T03:04:03;48858.63;;;-149.77;67.31
60055;BME280;45930;53.514;55.904;2023-05-11T03:05:05;48858.63;;;-149.77;67.57
60055;BME280;45930;53.514;55.904;2023-05-11T03:06:06;48906.16;;;-149.77;67.04
60055;BME280;45930;53.514;55.904;2023-05-11T03:07:07;48846.75;;;-149.77;67.02
60055;BME280;45930;53.514;55.904;2023-05-11T03:08:08;48874.47;;;-149.77;66.56
60055;BME280;45930;53.514;55.904;2023-05-11T03:09:09;48872.50;;;-149.77;65.98
60055;BME280;45930;53.514;55.904;2023-05-11T03:10:10;48886.38;;;-149.77;65.89
60055;BME280;45930;53.514;55.904;2023-05-11T03:11:12;48882.41;;;-149.77;65.32
60055;BME280;45930;53.514;55.904;2023-05-11T03:12:14;48906.16;;;-149.77;65.95
60055;BME280;45930;53.514;55.904;2023-05-11T03:13:15;48850.72;;;-149.77;65.02
60055;BME280;45930;53.514;55.904;2023-05-11T03:14:16;48874.47;;;-149.77;64.20
60055;BME280;45930;53.514;55.904;2023-05-11T03:15:18;48896.28;;;-149.77;64.00
60055;BME280;45930;53.514;55.904;2023-05-11T03:16:19;48886.38;;;-149.77;63.11
60055;BME280;45930;53.514;55.904;2023-05-11T03:17:21;48924.00;;;-149.77;62.42
60055;BME280;45930;53.514;55.904;2023-05-11T03:18:22;48933.91;;;-149.77;62.01
60055;BME280;45930;53.514;55.904;2023-05-11T03:19:26;48908.16;;;-149.77;61.33
60055;BME280;45930;53.514;55.904;2023-05-11T03:20:28;48924.00;;;-149.77;61.00
60055;BME280;45930;53.514;55.904;2023-05-11T03:21:30;48943.81;;;-149.77;60.48
60055;BME280;45930;53.514;55.904;2023-05-11T03:22:32;48941.81;;;-149.77;60.21
60055;BME280;45930;53.514;55.904;2023-05-11T03:23:38;48949.75;;;-149.77;59.92
60055;BME280;45930;53.514;55.904;2023-05-11T03:24:41;48937.88;;;-149.77;59.44
60055;BME280;45930;53.514;55.904;2023-05-11T03:25:43;48951.72;;;-149.77;59.32
60055;BME280;45930;53.514;55.904;2023-05-11T03:26:44;48933.91;;;-149.77;59.36
60055;BME280;45930;53.514;55.904;2023-05-11T03:27:46;48918.06;;;-149.77;59.24
60055;BME280;45930;53.514;55.904;2023-05-11T03:28:48;48939.84;;;-149.77;58.63
60055;BME280;45930;53.514;55.904;2023-05-11T03:29:51;48963.63;;;-149.77;58.01
60055;BME280;45930;53.514;55.904;2023-05-11T03:30:53;48953.72;;;-149.77;58.13
60055;BME280;45930;53.514;55.904;2023-05-11T03:31:54;48969.56;;;-149.77;57.60
60055;BME280;45930;53.514;55.904;2023-05-11T03:32:55;48961.63;;;-149.77;57.14
60055;BME280;45930;53.514;55.904;2023-05-11T03:33:56;48953.72;;;-149.77;56.84
60055;BME280;45930;53.514;55.904;2023-05-11T03:34:57;48997.28;;;-149.77;56.45
60055;BME280;45930;53.514;55.904;2023-05-11T03:35:58;48973.50;;;-149.77;56.70
60055;BME280;45930;53.514;55.904;2023-05-11T03:37:01;48943.81;;;-149.77;57.09
60055;BME280;45930;53.514;55.904;2023-05-11T03:38:03;48949.75;;;-149.77;56.84
60055;BME280;45930;53.514;55.904;2023-05-11T03:39:06;48969.56;;;-149.77;56.30
60055;BME280;45930;53.514;55.904;2023-05-11T03:40:09;48965.59;;;-149.77;56.42
60055;BME280;45930;53.514;55.904;2023-05-11T03:41:14;48961.63;;;-149.77;55.96
60055;BME280;45930;53.514;55.904;2023-05-11T03:42:16;48961.63;;;-149.77;55.93
60055;BME280;45930;53.514;55.904;2023-05-11T03:43:19;48933.91;;;-149.77;56.08
60055;BME280;45930;53.514;55.904;2023-05-11T03:44:21;48961.63;;;-149.77;55.74
60055;BME280;45930;53.514;55.904;2023-05-11T03:45:26;48941.81;;;-149.77;55.83
60055;BME280;45930;53.514;55.904;2023-05-11T03:46:28;48945.78;;;-149.77;55.03
60055;BME280;45930;53.514;55.904;2023-05-11T03:47:31;48995.31;;;-149.77;54.71
60055;BME280;45930;53.514;55.904;2023-05-11T03:48:33;48951.72;;;-149.77;54.76
60055;BME280;45930;53.514;55.904;2023-05-11T03:49:35;48983.41;;;-149.77;53.84
60055;BME280;45930;53.514;55.904;2023-05-11T03:50:37;48973.50;;;-149.77;53.58
60055;BME280;45930;53.514;55.904;2023-05-11T03:51:39;48961.63;;;-149.77;53.00
60055;BME280;45930;53.514;55.904;2023-05-11T03:52:41;48985.41;;;-149.77;52.92
60055;BME280;45930;53.514;55.904;2023-05-11T03:53:42;48977.47;;;-149.77;52.50
60055;BME280;45930;53.514;55.904;2023-05-11T03:54:43;48979.47;;;-149.77;51.97
60055;BME280;45930;53.514;55.904;2023-05-11T03:55:44;48951.72;;;-149.77;52.10
60055;BME280;45930;53.514;55.904;2023-05-11T03:56:45;48983.41;;;-149.77;51.68
60055;BME280;45930;53.514;55.904;2023-05-11T03:57:46;48979.47;;;-149.77;51.38
60055;BME280;45930;53.514;55.904;2023-05-11T03:58:47;48999.25;;;-149.77;51.65
60055;BME280;45930;53.514;55.904;2023-05-11T03:59:48;48997.28;;;-149.77;51.84
60055;BME280;45930;53.514;55.904;2023-05-11T04:00:49;48997.28;;;-149.77;50.25
60055;BME280;45930;53.514;55.904;2023-05-11T04:01:50;49023.03;;;-149.77;50.32
60055;BME280;45930;53.514;55.904;2023-05-11T04:02:53;49013.13;;;-149.77;49.46
60055;BME280;45930;53.514;55.904;2023-05-11T04:03:54;49042.84;;;-149.77;48.85
60055;BME280;45930;53.514;55.904;2023-05-11T04:04:54;49038.88;;;-149.77;48.77
60055;BME280;45930;53.514;55.904;2023-05-11T04:05:55;49013.13;;;-149.77;48.69
60055;BME280;45930;53.514;55.904;2023-05-11T04:06:57;49021.06;;;-149.77;48.63
60055;BME280;45930;53.514;55.904;2023-05-11T04:07:58;49025.00;;;-149.77;48.49
60055;BME280;45930;53.514;55.904;2023-05-11T04:08:59;49025.00;;;-149.77;48.34
60055;BME280;45930;53.514;55.904;2023-05-11T04:10:00;49021.06;;;-149.77;48.19
60055;BME280;45930;53.514;55.904;2023-05-11T04:11:01;49040.84;;;-149.77;47.13
60055;BME280;45930;53.514;55.904;2023-05-11T04:12:05;49044.81;;;-149.77;47.15
60055;BME280;45930;53.514;55.904;2023-05-11T04:13:06;49027.00;;;-149.77;47.23
60055;BME280;45930;53.514;55.904;2023-05-11T04:14:07;49025.00;;;-149.77;47.19
60055;BME280;45930;53.514;55.904;2023-05-11T04:15:07;49028.97;;;-149.77;46.11
60055;BME280;45930;53.514;55.904;2023-05-11T04:16:08;49046.78;;;-149.77;46.10
60055;BME280;45930;53.514;55.904;2023-05-11T04:17:09;49050.75;;;-149.77;46.09
60055;BME280;45930;53.514;55.904;2023-05-11T04:18:10;49025.00;;;-149.77;45.73
60055;BME280;45930;53.514;55.904;2023-05-11T04:19:11;49064.63;;;-149.77;45.75
60055;BME280;45930;53.514;55.904;2023-05-11T04:20:12;49066.59;;;-149.77;46.06
60055;BME280;45930;53.514;55.904;2023-05-11T04:21:13;49056.69;;;-149.77;45.19
60055;BME280;45930;53.514;55.904;2023-05-11T04:22:13;49056.69;;;-149.77;45.30
60055;BME280;45930;53.514;55.904;2023-05-11T04:23:15;49044.81;;;-149.77;45.25
60055;BME280;45930;53.514;55.904;2023-05-11T04:24:15;49064.63;;;-149.77;45.31
60055;BME280;45930;53.514;55.904;2023-05-11T04:25:16;49066.59;;;-149.77;45.24
60055;BME280;45930;53.514;55.904;2023-05-11T04:26:17;49068.59;;;-149.77;44.76
60055;BME280;45930;53.514;55.904;2023-05-11T04:27:18;49058.69;;;-149.77;44.25
60055;BME280;45930;53.514;55.904;2023-05-11T04:28:19;49046.78;;;-149.77;44.16
60055;BME280;45930;53.514;55.904;2023-05-11T04:29:20;49088.41;;;-149.77;43.94
60055;BME280;45930;53.514;55.904;2023-05-11T04:30:20;49072.53;;;-149.77;44.02
60055;BME280;45930;53.514;55.904;2023-05-11T04:31:21;49076.50;;;-149.77;43.63
60055;BME280;45930;53.514;55.904;2023-05-11T04:32:22;49078.50;;;-149.77;42.27
60055;BME280;45930;53.514;55.904;2023-05-11T04:33:23;49084.44;;;-149.77;42.63
60055;BME280;45930;53.514;55.904;2023-05-11T04:34:24;49058.69;;;-149.77;42.84
60055;BME280;45930;53.514;55.904;2023-05-11T04:35:25;49060.66;;;-149.77;42.69
60055;BME280;45930;53.514;55.904;2023-05-11T04:36:26;49064.63;;;-149.77;42.34
60055;BME280;45930;53.514;55.904;2023-05-11T04:37:26;49058.69;;;-149.77;42.10
60055;BME280;45930;53.514;55.904;2023-05-11T04:38:27;49078.50;;;-149.77;41.97
60055;BME280;45930;53.514;55.904;2023-05-11T04:39:28;49092.34;;;-149.77;41.88
60055;BME280;45930;53.514;55.904;2023-05-11T04:40:29;49092.34;;;-149.77;42.04
60055;BME280;45930;53.514;55.904;2023-05-11T04:41:29;49076.50;;;-149.77;42.10
60055;BME280;45930;53.514;55.904;2023-05-11T04:42:30;49076.50;;;-149.77;41.94
60055;BME280;45930;53.514;55.904;2023-05-11T04:43:31;49074.53;;;-149.77;42.07
60055;BME280;45930;53.514;55.904;2023-05-11T04:44:32;49092.34;;;-149.77;41.42
60055;BME280;45930;53.514;55.904;2023-05-11T04:45:33;49074.53;;;-149.77;41.57
60055;BME280;45930;53.514;55.904;2023-05-11T04:46:34;49100.28;;;-149.77;40.90
60055;BME280;45930;53.514;55.904;2023-05-11T04:47:34;49080.47;;;-149.77;40.46
60055;BME280;45930;53.514;55.904;2023-05-11T04:48:35;49090.38;;;-149.77;40.26
60055;BME280;45930;53.514;55.904;2023-05-11T04:49:36;49096.31;;;-149.77;39.86
60055;BME280;45930;53.514;55.904;2023-05-11T04:50:38;49072.53;;;-149.77;39.84
60055;BME280;45930;53.514;55.904;2023-05-11T04:51:39;49074.53;;;-149.77;39.75
60055;BME280;45930;53.514;55.904;2023-05-11T04:52:40;49092.34;;;-149.77;39.09
60055;BME280;45930;53.514;55.904;2023-05-11T04:53:41;49092.34;;;-149.77;39.26
60055;BME280;45930;53.514;55.904;2023-05-11T04:54:42;49072.53;;;-149.77;39.14
60055;BME280;45930;53.514;55.904;2023-05-11T04:55:42;49112.16;;;-149.77;38.61
60055;BME280;45930;53.514;55.904;2023-05-11T04:56:43;49114.16;;;-149.77;38.35
60055;BME280;45930;53.514;55.904;2023-05-11T04:57:44;49137.91;;;-149.77;38.11
60055;BME280;45930;53.514;55.904;2023-05-11T04:58:45;49090.38;;;-149.77;38.13
60055;BME280;45930;53.514;55.904;2023-05-11T04:59:45;49114.16;;;-149.77;38.34
60055;BME280;45930;53.514;55.904;2023-05-11T05:00:46;49120.09;;;-149.77;36.97
60055;BME280;45930;53.514;55.904;2023-05-11T05:01:47;49096.31;;;-149.77;36.80
60055;BME280;45930;53.514;55.904;2023-05-11T05:02:48;49084.44;;;-149.77;36.83
60055;BME280;45930;53.514;55.904;2023-05-11T05:03:50;49106.22;;;-149.77;36.59
60055;BME280;45930;53.514;55.904;2023-05-11T05:04:51;49122.06;;;-149.77;36.63
60055;BME280;45930;53.514;55.904;2023-05-11T05:05:52;49102.25;;;-149.77;36.47
60055;BME280;45930;53.514;55.904;2023-05-11T05:06:52;49112.16;;;-149.77;36.69
60055;BME280;45930;53.514;55.904;2023-05-11T05:07:53;49104.25;;;-149.77;36.66
60055;BME280;45930;53.514;55.904;2023-05-11T05:08:54;49120.09;;;-149.77;36.35
60055;BME280;45930;53.514;55.904;2023-05-11T05:09:55;49086.41;;;-149.77;36.37
60055;BME280;45930;53.514;55.904;2023-05-11T05:10:56;49130.00;;;-149.77;36.27
60055;BME280;45930;53.514;55.904;2023-05-11T05:11:56;49106.22;;;-149.77;35.46
60055;BME280;45930;53.514;55.904;2023-05-11T05:12:57;49131.97;;;-149.77;35.61
60055;BME280;45930;53.514;55.904;2023-05-11T05:13:58;49126.03;;;-149.77;35.99
60055;BME280;45930;53.514;55.904;2023-05-11T05:14:59;49124.03;;;-149.77;35.52
60055;BME280;45930;53.514;55.904;2023-05-11T05:15:59;49120.09;;;-149.77;35.13
60055;BME280;45930;53.514;55.904;2023-05-11T05:17:00;49137.91;;;-149.77;34.93
60055;BME280;45930;53.514;55.904;2023-05-11T05:18:01;49128.00;;;-149.77;35.12
60055;BME280;45930;53.514;55.904;2023-05-11T05:19:02;49114.16;;;-149.77;35.23
60055;BME280;45930;53.514;55.904;2023-05-11T05:20:03;49131.97;;;-149.77;35.33
60055;BME280;45930;53.514;55.904;2023-05-11T05:21:04;49108.19;;;-149.77;35.24
60055;BME280;45930;53.514;55.904;2023-05-11T05:22:05;49135.94;;;-149.77;35.22
60055;BME280;45930;53.514;55.904;2023-05-11T05:23:06;49112.16;;;-149.77;34.93
60055;BME280;45930;53.514;55.904;2023-05-11T05:24:07;49108.19;;;-149.77;35.08
60055;BME280;45930;53.514;55.904;2023-05-11T05:25:10;49133.94;;;-149.77;33.81
60055;BME280;45930;53.514;55.904;2023-05-11T05:26:11;49110.19;;;-149.77;33.81
60055;BME280;45930;53.514;55.904;2023-05-11T05:27:12;49126.03;;;-149.77;34.03
60055;BME280;45930;53.514;55.904;2023-05-11T05:28:13;49104.25;;;-149.77;33.21
60055;BME280;45930;53.514;55.904;2023-05-11T05:29:13;49072.53;;;-149.77;33.64
60055;BME280;45930;53.514;55.904;2023-05-11T05:30:14;49157.72;;;-149.77;33.89